createdAt,value
2019-03-03T00:01:26.031Z,917.44
2019-03-03T00:02:26.019Z,917.46
2019-03-03T00:03:26.005Z,917.48
2019-03-03T00:42:25.586Z,917.79
2019-03-03T00:43:25.534Z,917.78
2019-03-03T00:44:25.593Z,917.76
2019-03-03T00:45:25.554Z,917.84
2019-03-03T00:46:25.544Z,917.78
2019-03-03T00:47:25.534Z,917.87
2019-03-03T00:50:25.500Z,917.86
2019-03-03T00:51:25.490Z,917.84
2019-03-03T00:52:25.481Z,917.90
2019-03-03T00:53:25.542Z,917.88
2019-03-03T00:59:25.403Z,917.96
2019-03-03T01:00:25.393Z,917.96
2019-03-03T01:05:25.339Z,917.99
2019-03-03T01:06:25.329Z,918.02
2019-03-03T01:07:25.321Z,918.00
2019-03-03T01:08:25.306Z,917.98
2019-03-03T01:14:25.270Z,918.06
2019-03-03T01:16:25.219Z,918.03
2019-03-03T01:17:25.208Z,918.03
2019-03-03T01:18:25.204Z,918.05
2019-03-03T01:19:25.187Z,918.07
2019-03-03T01:20:25.178Z,918.05
2019-03-03T01:21:25.167Z,918.07
2019-03-03T01:22:25.157Z,918.06
2019-03-03T01:23:25.144Z,918.11
2019-03-03T01:24:25.134Z,918.09
2019-03-03T01:25:25.124Z,918.05
2019-03-03T01:26:25.114Z,918.09
2019-03-03T01:27:25.102Z,918.12
2019-03-03T01:28:25.093Z,918.11
2019-03-03T01:29:25.083Z,918.12
2019-03-03T01:30:25.117Z,918.09
2019-03-03T01:31:25.674Z,918.10
2019-03-03T01:32:25.049Z,918.08
2019-03-03T01:33:24.964Z,918.11
2019-03-03T01:34:25.027Z,918.12
2019-03-03T01:35:25.015Z,918.14
2019-03-03T01:36:25.004Z,918.17
2019-03-03T01:37:24.995Z,918.17
2019-03-03T01:38:24.964Z,918.17
2019-03-03T01:39:24.972Z,918.17
2019-03-03T01:40:24.967Z,918.14
2019-03-03T01:41:24.953Z,918.17
2019-03-03T01:42:24.941Z,918.20
2019-03-03T01:43:24.865Z,918.21
2019-03-03T01:44:24.920Z,918.25
2019-03-03T01:45:25.426Z,918.22
2019-03-03T01:46:24.897Z,918.24
2019-03-03T01:47:24.888Z,918.25
2019-03-03T01:48:24.865Z,918.25
2019-03-03T01:49:24.867Z,918.28
2019-03-03T01:50:24.907Z,918.24
2019-03-03T01:51:24.844Z,918.32
2019-03-03T01:52:24.833Z,918.32
2019-03-03T01:53:24.828Z,918.30
2019-03-03T01:54:24.897Z,918.36
2019-03-03T01:55:25.455Z,918.29
2019-03-03T01:56:24.790Z,918.32
2019-03-03T01:57:24.779Z,918.28
2019-03-03T01:58:24.770Z,918.29
2019-03-03T01:59:24.760Z,918.28
2019-03-03T02:00:24.749Z,918.32
2019-03-03T02:01:24.735Z,918.32
2019-03-03T02:02:24.725Z,918.30
2019-03-03T02:03:24.718Z,918.29
2019-03-03T02:04:24.703Z,918.33
2019-03-03T02:05:24.695Z,918.32
2019-03-03T02:06:24.905Z,918.35
2019-03-03T02:07:24.670Z,918.33
2019-03-03T02:08:24.660Z,918.35
2019-03-03T02:09:24.650Z,918.41
2019-03-03T02:10:24.639Z,918.39
2019-03-03T02:11:24.633Z,918.41
2019-03-03T02:12:24.620Z,918.42
2019-03-03T02:13:24.607Z,918.41
2019-03-03T02:14:24.598Z,918.43
2019-03-03T02:15:24.587Z,918.42
2019-03-03T02:16:24.577Z,918.46
2019-03-03T02:17:24.487Z,918.46
2019-03-03T02:18:24.600Z,918.47
2019-03-03T02:19:24.541Z,918.44
2019-03-03T02:20:24.534Z,918.46
2019-03-03T02:21:24.522Z,918.46
2019-03-03T02:22:24.511Z,918.47
2019-03-03T02:23:24.498Z,918.47
2019-03-03T02:24:24.489Z,918.47
2019-03-03T02:25:24.484Z,918.48
2019-03-03T02:26:24.469Z,918.50
2019-03-03T02:27:24.456Z,918.49
2019-03-03T02:28:24.444Z,918.50
2019-03-03T02:29:24.440Z,918.54
2019-03-03T02:30:24.427Z,918.54
2019-03-03T02:31:24.417Z,918.55
2019-03-03T02:32:24.407Z,918.57
2019-03-03T02:33:24.396Z,918.58
2019-03-03T02:34:24.388Z,918.55
2019-03-03T02:35:24.371Z,918.56
2019-03-03T02:36:24.361Z,918.53
2019-03-03T02:37:24.351Z,918.54
2019-03-03T02:38:24.341Z,918.54
2019-03-03T02:39:24.329Z,918.50
2019-03-03T02:40:24.330Z,918.56
2019-03-03T02:41:24.320Z,918.57
2019-03-03T02:42:24.297Z,918.56
2019-03-03T02:43:24.308Z,918.53
2019-03-03T02:44:24.281Z,918.58
2019-03-03T02:45:24.204Z,918.62
2019-03-03T02:46:24.255Z,918.63
2019-03-03T02:47:24.252Z,918.62
2019-03-03T02:48:24.235Z,918.63
2019-03-03T02:49:24.226Z,918.65
2019-03-03T02:50:24.213Z,918.70
2019-03-03T02:51:24.202Z,918.67
2019-03-03T02:52:24.193Z,918.69
2019-03-03T02:53:24.183Z,918.69
2019-03-03T02:54:25.318Z,918.72
2019-03-03T02:55:24.164Z,918.76
2019-03-03T02:56:24.297Z,918.78
2019-03-03T02:57:24.239Z,918.80
2019-03-03T02:58:24.131Z,918.79
2019-03-03T02:59:24.134Z,918.76
2019-03-03T03:00:24.211Z,918.75
2019-03-03T03:01:24.099Z,918.83
2019-03-03T03:02:24.089Z,918.81
2019-03-03T03:03:24.078Z,918.84
2019-03-03T03:04:24.064Z,918.83
2019-03-03T03:05:24.668Z,918.84
2019-03-03T03:06:24.044Z,918.83
2019-03-03T03:07:24.114Z,918.80
2019-03-03T03:08:24.022Z,918.82
2019-03-03T03:09:24.014Z,918.86
2019-03-03T03:10:24.024Z,918.84
2019-03-03T03:11:23.992Z,918.92
2019-03-03T03:12:23.984Z,918.86
2019-03-03T03:13:23.970Z,918.84
2019-03-03T03:14:23.960Z,918.84
2019-03-03T03:15:23.950Z,918.86
2019-03-03T03:16:23.938Z,918.88
2019-03-03T03:17:23.928Z,918.89
2019-03-03T03:18:23.916Z,918.89
2019-03-03T03:19:23.908Z,918.89
2019-03-03T03:20:23.894Z,918.89
2019-03-03T03:21:23.791Z,918.92
2019-03-03T03:22:23.778Z,918.97
2019-03-03T03:23:23.864Z,918.91
2019-03-03T03:24:23.765Z,918.98
2019-03-03T03:25:23.747Z,918.97
2019-03-03T03:26:23.741Z,918.99
2019-03-03T03:27:23.724Z,919.01
2019-03-03T03:28:23.846Z,919.02
2019-03-03T03:29:23.706Z,919.02
2019-03-03T03:30:23.835Z,919.03
2019-03-03T03:31:24.390Z,919.03
2019-03-03T03:32:23.672Z,919.03
2019-03-03T03:33:23.762Z,919.08
2019-03-03T03:34:23.747Z,919.05
2019-03-03T03:35:23.819Z,919.05
2019-03-03T03:36:23.725Z,919.10
2019-03-03T03:37:23.717Z,919.10
2019-03-03T03:38:23.707Z,919.10
2019-03-03T03:39:23.840Z,919.09
2019-03-03T03:40:23.662Z,919.11
2019-03-03T03:41:23.676Z,919.12
2019-03-03T03:42:23.668Z,919.13
2019-03-03T03:43:23.572Z,919.16
2019-03-03T03:44:23.558Z,919.15
2019-03-03T03:45:23.570Z,919.20
2019-03-03T03:46:23.529Z,919.22
2019-03-03T03:47:23.516Z,919.24
2019-03-03T03:48:23.585Z,919.22
2019-03-03T03:49:23.543Z,919.27
2019-03-03T03:50:23.584Z,919.23
2019-03-03T03:51:23.518Z,919.24
2019-03-03T03:52:23.659Z,919.27
2019-03-03T03:53:23.553Z,919.26
2019-03-03T03:54:23.541Z,919.30
2019-03-03T03:55:23.454Z,919.34
2019-03-03T03:56:23.815Z,919.29
2019-03-03T03:57:24.508Z,919.29
2019-03-03T03:58:23.404Z,919.30
2019-03-03T03:59:23.454Z,919.29
2019-03-03T04:00:23.587Z,919.30
2019-03-03T04:01:23.371Z,919.29
2019-03-03T04:02:23.472Z,919.33
2019-03-03T04:03:23.446Z,919.32
2019-03-03T04:04:23.597Z,919.35
2019-03-03T04:05:23.426Z,919.35
2019-03-03T04:06:23.414Z,919.35
2019-03-03T04:07:23.408Z,919.36
2019-03-03T04:08:23.394Z,919.38
2019-03-03T04:09:23.386Z,919.37
2019-03-03T04:10:23.374Z,919.42
2019-03-03T04:11:23.362Z,919.41
2019-03-03T04:12:23.256Z,919.39
2019-03-03T04:13:23.342Z,919.46
2019-03-03T04:14:23.333Z,919.42
2019-03-03T04:15:23.236Z,919.43
2019-03-03T04:16:23.309Z,919.43
2019-03-03T04:17:23.299Z,919.43
2019-03-03T04:18:23.290Z,919.50
2019-03-03T04:19:23.281Z,919.46
2019-03-03T04:20:23.271Z,919.51
2019-03-03T04:21:23.259Z,919.49
2019-03-03T04:22:23.250Z,919.50
2019-03-03T04:23:23.239Z,919.54
2019-03-03T04:24:23.159Z,919.55
2019-03-03T04:25:23.215Z,919.54
2019-03-03T04:26:23.208Z,919.58
2019-03-03T04:27:23.246Z,919.60
2019-03-03T04:28:23.191Z,919.63
2019-03-03T04:29:23.102Z,919.62
2019-03-03T04:30:23.167Z,919.63
2019-03-03T04:31:23.158Z,919.62
2019-03-03T04:32:23.150Z,919.66
2019-03-03T04:33:23.136Z,919.65
2019-03-03T04:34:23.180Z,919.65
2019-03-03T04:35:23.116Z,919.64
2019-03-03T04:36:23.108Z,919.66
2019-03-03T04:37:23.096Z,919.67
2019-03-03T04:38:23.083Z,919.64
2019-03-03T04:39:23.074Z,919.65
2019-03-03T04:40:23.126Z,919.68
2019-03-03T04:41:23.216Z,919.63
2019-03-03T04:42:22.985Z,919.64
2019-03-03T04:43:22.938Z,919.62
2019-03-03T04:44:23.022Z,919.64
2019-03-03T04:45:22.917Z,919.59
2019-03-03T04:46:22.905Z,919.64
2019-03-03T04:47:22.989Z,919.58
2019-03-03T04:48:23.325Z,919.60
2019-03-03T04:49:22.972Z,919.61
2019-03-03T04:50:22.865Z,919.59
2019-03-03T04:51:22.950Z,919.56
2019-03-03T04:52:22.937Z,919.57
2019-03-03T04:53:23.328Z,919.59
2019-03-03T04:54:22.917Z,919.57
2019-03-03T04:55:22.811Z,919.56
2019-03-03T04:56:22.804Z,919.57
2019-03-03T04:57:22.794Z,919.57
2019-03-03T04:58:22.781Z,919.55
2019-03-03T04:59:22.865Z,919.54
2019-03-03T05:00:22.855Z,919.49
2019-03-03T05:01:22.844Z,919.45
2019-03-03T05:02:22.834Z,919.49
2019-03-03T05:03:22.823Z,919.48
2019-03-03T05:04:22.815Z,919.51
2019-03-03T05:05:22.805Z,919.47
2019-03-03T05:06:22.794Z,919.49
2019-03-03T05:07:22.781Z,919.46
2019-03-03T05:08:22.774Z,919.45
2019-03-03T05:09:22.764Z,919.43
2019-03-03T05:10:22.754Z,919.48
2019-03-03T05:11:23.397Z,919.49
2019-03-03T05:12:22.735Z,919.51
2019-03-03T05:13:22.721Z,919.50
2019-03-03T05:14:22.707Z,919.50
2019-03-03T05:15:22.701Z,919.56
2019-03-03T05:16:22.689Z,919.54
2019-03-03T05:17:22.677Z,919.56
2019-03-03T05:18:22.666Z,919.53
2019-03-03T05:19:23.167Z,919.54
2019-03-03T05:20:22.645Z,919.53
2019-03-03T05:21:22.635Z,919.52
2019-03-03T05:22:22.623Z,919.51
2019-03-03T05:23:22.611Z,919.49
2019-03-03T05:24:22.599Z,919.48
2019-03-03T05:25:23.092Z,919.50
2019-03-03T05:26:22.580Z,919.48
2019-03-03T05:27:22.567Z,919.52
2019-03-03T05:28:22.559Z,919.47
2019-03-03T05:29:22.547Z,919.44
2019-03-03T05:30:22.469Z,919.48
2019-03-03T05:31:22.469Z,919.44
2019-03-03T05:32:22.514Z,919.43
2019-03-03T05:33:22.503Z,919.40
2019-03-03T05:34:22.494Z,919.44
2019-03-03T05:35:22.482Z,919.40
2019-03-03T05:36:22.471Z,919.42
2019-03-03T05:37:22.459Z,919.41
2019-03-03T05:38:22.449Z,919.39
2019-03-03T05:39:22.521Z,919.40
2019-03-03T05:40:22.494Z,919.42
2019-03-03T05:41:22.418Z,919.42
2019-03-03T05:42:22.403Z,919.42
2019-03-03T05:43:22.394Z,919.41
2019-03-03T05:44:22.812Z,919.45
2019-03-03T05:45:22.374Z,919.44
2019-03-03T05:46:22.359Z,919.41
2019-03-03T05:47:22.349Z,919.42
2019-03-03T05:48:22.338Z,919.40
2019-03-03T05:49:22.328Z,919.40
2019-03-03T05:50:22.318Z,919.36
2019-03-03T05:51:22.296Z,919.35
2019-03-03T05:52:22.233Z,919.36
2019-03-03T05:53:22.286Z,919.38
2019-03-03T05:54:22.370Z,919.38
2019-03-03T05:55:22.263Z,919.35
2019-03-03T05:56:22.267Z,919.31
2019-03-03T05:57:22.242Z,919.30
2019-03-03T05:58:22.230Z,919.27
2019-03-03T05:59:22.222Z,919.25
2019-03-03T06:00:22.208Z,919.27
2019-03-03T06:01:22.205Z,919.22
2019-03-03T06:02:22.219Z,919.20
2019-03-03T06:03:22.242Z,919.24
2019-03-03T06:04:22.164Z,919.26
2019-03-03T06:05:22.153Z,919.26
2019-03-03T06:06:22.144Z,919.24
2019-03-03T06:07:22.132Z,919.24
2019-03-03T06:08:22.119Z,919.23
2019-03-03T06:09:22.110Z,919.23
2019-03-03T06:10:22.101Z,919.25
2019-03-03T06:11:22.087Z,919.19
2019-03-03T06:12:22.077Z,919.24
2019-03-03T06:13:22.065Z,919.22
2019-03-03T06:14:22.485Z,919.23
2019-03-03T06:15:22.045Z,919.19
2019-03-03T06:16:22.033Z,919.25
2019-03-03T06:17:22.021Z,919.17
2019-03-03T06:18:22.013Z,919.19
2019-03-03T06:19:22.001Z,919.21
2019-03-03T06:20:21.897Z,919.20
2019-03-03T06:21:21.931Z,919.26
2019-03-03T06:22:21.975Z,919.25
2019-03-03T06:23:21.956Z,919.24
2019-03-03T06:24:22.425Z,919.23
2019-03-03T06:25:21.935Z,919.21
2019-03-03T06:26:21.889Z,919.25
2019-03-03T06:27:22.143Z,919.31
2019-03-03T06:28:21.900Z,919.29
2019-03-03T06:29:22.117Z,919.28
2019-03-03T06:30:21.881Z,919.27
2019-03-03T06:31:21.869Z,919.23
2019-03-03T06:32:22.158Z,919.26
2019-03-03T06:33:21.849Z,919.29
2019-03-03T06:34:22.048Z,919.25
2019-03-03T06:35:21.829Z,919.21
2019-03-03T06:36:21.815Z,919.28
2019-03-03T06:37:21.765Z,919.28
2019-03-03T06:38:21.796Z,919.25
2019-03-03T06:39:21.744Z,919.22
2019-03-03T06:40:22.152Z,919.21
2019-03-03T06:41:21.765Z,919.20
2019-03-03T06:42:22.454Z,919.20
2019-03-03T06:43:21.741Z,919.19
2019-03-03T06:44:21.732Z,919.17
2019-03-03T06:45:21.873Z,919.19
2019-03-03T06:46:21.709Z,919.15
2019-03-03T06:47:21.704Z,919.18
2019-03-03T06:48:21.662Z,919.15
2019-03-03T06:49:21.674Z,919.12
2019-03-03T06:50:22.273Z,919.17
2019-03-03T06:51:21.658Z,919.17
2019-03-03T06:52:21.644Z,919.15
2019-03-03T06:53:21.635Z,919.14
2019-03-03T06:54:21.621Z,919.10
2019-03-03T06:55:22.382Z,919.11
2019-03-03T06:56:21.601Z,919.04
2019-03-03T06:57:21.713Z,919.07
2019-03-03T06:58:21.584Z,919.04
2019-03-03T06:59:21.571Z,919.03
2019-03-03T07:00:21.561Z,918.99
2019-03-03T07:01:21.552Z,918.97
2019-03-03T07:02:21.536Z,918.96
2019-03-03T07:03:21.527Z,918.93
2019-03-03T07:04:21.514Z,918.96
2019-03-03T07:05:21.508Z,918.94
2019-03-03T07:06:21.566Z,918.92
2019-03-03T07:07:21.485Z,918.93
2019-03-03T07:08:21.475Z,918.91
2019-03-03T07:09:21.663Z,918.92
2019-03-03T07:10:21.449Z,918.86
2019-03-03T07:11:21.441Z,918.87
2019-03-03T07:12:21.430Z,918.86
2019-03-03T07:13:21.486Z,918.82
2019-03-03T07:14:21.406Z,918.85
2019-03-03T07:15:21.397Z,918.83
2019-03-03T07:16:21.385Z,918.84
2019-03-03T07:17:21.373Z,918.80
2019-03-03T07:18:21.361Z,918.81
2019-03-03T07:19:21.263Z,918.76
2019-03-03T07:20:21.316Z,918.82
2019-03-03T07:21:21.372Z,918.79
2019-03-03T07:22:21.319Z,918.77
2019-03-03T07:23:21.558Z,918.70
2019-03-03T07:24:21.297Z,918.69
2019-03-03T07:25:21.285Z,918.67
2019-03-03T07:26:21.274Z,918.65
2019-03-03T07:27:21.265Z,918.67
2019-03-03T07:28:21.255Z,918.70
2019-03-03T07:29:21.242Z,918.65
2019-03-03T07:30:21.235Z,918.62
2019-03-03T07:31:21.402Z,918.60
2019-03-03T07:32:21.211Z,918.59
2019-03-03T07:33:21.203Z,918.56
2019-03-03T07:34:21.187Z,918.56
2019-03-03T07:35:21.177Z,918.55
2019-03-03T07:36:21.169Z,918.54
2019-03-03T07:37:21.158Z,918.54
2019-03-03T07:38:21.143Z,918.56
2019-03-03T07:39:21.441Z,918.57
2019-03-03T07:40:21.121Z,918.54
2019-03-03T07:41:21.030Z,918.53
2019-03-03T07:42:21.105Z,918.53
2019-03-03T07:43:21.090Z,918.50
2019-03-03T07:44:21.054Z,918.51
2019-03-03T07:45:21.071Z,918.53
2019-03-03T07:46:21.007Z,918.45
2019-03-03T07:47:21.025Z,918.46
2019-03-03T07:48:21.017Z,918.45
2019-03-03T07:49:21.025Z,918.43
2019-03-03T07:50:21.024Z,918.39
2019-03-03T07:51:21.006Z,918.41
2019-03-03T07:52:20.993Z,918.37
2019-03-03T07:53:21.007Z,918.33
2019-03-03T07:54:20.971Z,918.42
2019-03-03T07:55:21.006Z,918.39
2019-03-03T07:56:21.125Z,918.40
2019-03-03T07:57:20.947Z,918.39
2019-03-03T07:58:20.977Z,918.42
2019-03-03T07:59:20.922Z,918.40
2019-03-03T08:00:20.908Z,918.38
2019-03-03T08:01:20.899Z,918.40
2019-03-03T08:02:20.789Z,918.36
2019-03-03T08:03:20.784Z,918.39
2019-03-03T08:04:20.827Z,918.34
2019-03-03T08:05:20.762Z,918.36
2019-03-03T08:06:20.751Z,918.35
2019-03-03T08:07:20.739Z,918.38
2019-03-03T08:08:20.791Z,918.33
2019-03-03T08:09:20.719Z,918.36
2019-03-03T08:10:20.708Z,918.33
2019-03-03T08:11:20.699Z,918.34
2019-03-03T08:12:20.685Z,918.29
2019-03-03T08:13:20.677Z,918.29
2019-03-03T08:14:20.818Z,918.24
2019-03-03T08:15:20.659Z,918.27
2019-03-03T08:16:20.645Z,918.25
2019-03-03T08:17:20.634Z,918.24
2019-03-03T08:18:20.623Z,918.23
2019-03-03T08:19:20.708Z,918.20
2019-03-03T08:20:20.607Z,918.26
2019-03-03T08:21:20.688Z,918.20
2019-03-03T08:22:20.585Z,918.21
2019-03-03T08:23:20.662Z,918.16
2019-03-03T08:24:20.657Z,918.15
2019-03-03T08:25:20.648Z,918.14
2019-03-03T08:26:20.593Z,918.15
2019-03-03T08:27:20.622Z,918.12
2019-03-03T08:28:20.613Z,918.08
2019-03-03T08:29:20.599Z,918.05
2019-03-03T08:30:20.592Z,918.05
2019-03-03T08:31:20.580Z,918.06
2019-03-03T08:32:20.708Z,918.03
2019-03-03T08:33:20.491Z,917.97
2019-03-03T08:34:20.627Z,917.97
2019-03-03T08:35:20.538Z,917.97
2019-03-03T08:36:20.527Z,917.90
2019-03-03T08:37:20.513Z,917.92
2019-03-03T08:38:20.555Z,917.91
2019-03-03T08:39:20.496Z,917.90
2019-03-03T08:40:20.483Z,917.89
2019-03-03T08:41:20.469Z,917.88
2019-03-03T08:42:20.460Z,917.86
2019-03-03T08:43:20.390Z,917.83
2019-03-03T08:44:20.525Z,917.86
2019-03-03T08:45:20.428Z,917.83
2019-03-03T08:46:21.806Z,917.84
2019-03-03T08:47:20.404Z,917.83
2019-03-03T08:48:20.390Z,917.82
2019-03-03T08:49:20.405Z,917.78
2019-03-03T08:50:20.277Z,917.80
2019-03-03T08:51:20.362Z,917.79
2019-03-03T08:52:20.351Z,917.76
2019-03-03T08:53:20.341Z,917.71
2019-03-03T08:54:20.325Z,917.75
2019-03-03T08:55:20.317Z,917.77
2019-03-03T08:56:20.598Z,917.68
2019-03-03T08:57:21.252Z,917.71
2019-03-03T08:58:20.385Z,917.67
2019-03-03T08:59:20.292Z,917.66
2019-03-03T09:00:20.417Z,917.63
2019-03-03T09:01:20.253Z,917.58
2019-03-03T09:02:20.244Z,917.64
2019-03-03T09:03:20.229Z,917.67
2019-03-03T09:04:20.227Z,917.60
2019-03-03T09:05:20.216Z,917.62
2019-03-03T09:06:20.196Z,917.60
2019-03-03T09:07:21.502Z,917.56
2019-03-03T09:08:20.180Z,917.54
2019-03-03T09:09:20.668Z,917.53
2019-03-03T09:10:25.347Z,917.57
2019-03-03T09:11:20.141Z,917.52
2019-03-03T09:12:20.121Z,917.49
2019-03-03T09:13:20.529Z,917.46
2019-03-03T09:14:20.030Z,917.47
2019-03-03T09:15:20.111Z,917.47
2019-03-03T09:16:20.024Z,917.54
2019-03-03T09:17:20.078Z,917.48
2019-03-03T09:18:20.064Z,917.47
2019-03-03T09:19:20.046Z,917.40
2019-03-03T09:20:20.700Z,917.41
2019-03-03T09:21:20.039Z,917.40
2019-03-03T09:22:20.026Z,917.36
2019-03-03T09:23:20.013Z,917.35
2019-03-03T09:24:19.906Z,917.31
2019-03-03T09:25:19.991Z,917.34
2019-03-03T09:26:19.942Z,917.34
2019-03-03T09:27:19.973Z,917.24
2019-03-03T09:28:19.971Z,917.26
2019-03-03T09:29:19.996Z,917.28
2019-03-03T09:30:19.940Z,917.23
2019-03-03T09:31:20.297Z,917.22
2019-03-03T09:32:19.915Z,917.22
2019-03-03T09:33:19.909Z,917.22
2019-03-03T09:34:19.890Z,917.19
2019-03-03T09:35:19.880Z,917.17
2019-03-03T09:36:19.868Z,917.22
2019-03-03T09:37:19.859Z,917.15
2019-03-03T09:38:19.852Z,917.13
2019-03-03T09:39:19.838Z,917.15
2019-03-03T09:40:19.831Z,917.15
2019-03-03T09:41:19.816Z,917.17
2019-03-03T09:42:19.886Z,917.19
2019-03-03T09:43:19.868Z,917.14
2019-03-03T09:44:19.788Z,917.16
2019-03-03T09:45:19.775Z,917.14
2019-03-03T09:46:19.762Z,917.20
2019-03-03T09:47:19.755Z,917.17
2019-03-03T09:48:19.741Z,917.19
2019-03-03T09:49:19.735Z,917.16
2019-03-03T09:50:19.719Z,917.19
2019-03-03T09:51:19.711Z,917.12
2019-03-03T09:52:19.799Z,917.13
2019-03-03T09:53:19.687Z,917.17
2019-03-03T09:54:19.677Z,917.12
2019-03-03T09:55:19.674Z,917.11
2019-03-03T09:56:19.655Z,917.11
2019-03-03T09:57:19.649Z,917.04
2019-03-03T09:58:19.731Z,917.08
2019-03-03T09:59:19.621Z,917.13
2019-03-03T10:00:19.613Z,917.10
2019-03-03T10:01:19.529Z,917.07
2019-03-03T10:02:19.602Z,917.11
2019-03-03T10:03:19.585Z,917.10
2019-03-03T10:04:19.570Z,917.09
2019-03-03T10:05:19.557Z,917.15
2019-03-03T10:06:19.546Z,917.10
2019-03-03T10:07:19.535Z,917.14
2019-03-03T10:08:19.524Z,917.14
2019-03-03T10:09:19.514Z,917.14
2019-03-03T10:10:19.506Z,917.08
2019-03-03T10:11:19.492Z,917.09
2019-03-03T10:12:19.489Z,917.09
2019-03-03T10:13:19.467Z,917.07
2019-03-03T10:14:19.430Z,917.06
2019-03-03T10:15:19.351Z,917.02
2019-03-03T10:16:19.343Z,916.98
2019-03-03T10:17:19.334Z,916.99
2019-03-03T10:18:19.325Z,917.04
2019-03-03T10:19:19.309Z,916.97
2019-03-03T10:20:19.340Z,916.95
2019-03-03T10:21:19.357Z,916.98
2019-03-03T10:22:19.280Z,917.01
2019-03-03T10:23:19.271Z,916.98
2019-03-03T10:24:19.262Z,916.93
2019-03-03T10:25:19.244Z,916.97
2019-03-03T10:26:19.235Z,916.94
2019-03-03T10:27:19.222Z,916.93
2019-03-03T10:28:19.212Z,916.90
2019-03-03T10:29:19.202Z,916.89
2019-03-03T10:30:19.190Z,916.92
2019-03-03T10:31:19.179Z,916.98
2019-03-03T10:32:19.173Z,916.95
2019-03-03T10:33:19.165Z,916.91
2019-03-03T10:34:19.151Z,916.87
2019-03-03T10:35:19.135Z,916.90
2019-03-03T10:36:19.126Z,916.94
2019-03-03T10:37:19.114Z,916.90
2019-03-03T10:38:19.104Z,916.88
2019-03-03T10:39:19.171Z,916.89
2019-03-03T10:40:19.081Z,916.91
2019-03-03T10:41:19.071Z,916.88
2019-03-03T10:42:19.061Z,916.91
2019-03-03T10:43:19.048Z,916.87
2019-03-03T10:44:19.037Z,916.87
2019-03-03T10:45:19.028Z,916.86
2019-03-03T10:46:19.022Z,916.81
2019-03-03T10:47:19.099Z,916.84
2019-03-03T10:48:19.037Z,916.84
2019-03-03T10:49:19.078Z,916.82
2019-03-03T10:50:19.068Z,916.80
2019-03-03T10:51:19.057Z,916.83
2019-03-03T10:52:19.046Z,916.83
2019-03-03T10:53:19.132Z,916.83
2019-03-03T10:54:19.022Z,916.82
2019-03-03T10:55:19.021Z,916.81
2019-03-03T10:56:18.999Z,916.78
2019-03-03T10:57:18.989Z,916.76
2019-03-03T10:58:18.977Z,916.78
2019-03-03T10:59:19.683Z,916.77
2019-03-03T11:00:18.944Z,916.77
2019-03-03T11:01:18.943Z,916.74
2019-03-03T11:02:18.892Z,916.75
2019-03-03T11:03:18.894Z,916.73
2019-03-03T11:04:18.885Z,916.71
2019-03-03T11:05:18.824Z,916.76
2019-03-03T11:06:18.816Z,916.76
2019-03-03T11:07:18.809Z,916.76
2019-03-03T11:08:18.808Z,916.76
2019-03-03T11:09:18.860Z,916.77
2019-03-03T11:10:18.849Z,916.75
2019-03-03T11:11:18.743Z,916.73
2019-03-03T11:12:18.828Z,916.70
2019-03-03T11:13:18.821Z,916.71
2019-03-03T11:14:18.805Z,916.75
2019-03-03T11:15:18.961Z,916.70
2019-03-03T11:16:18.884Z,916.72
2019-03-03T11:17:18.771Z,916.72
2019-03-03T11:18:18.762Z,916.68
2019-03-03T11:19:20.115Z,916.68
2019-03-03T11:20:18.737Z,916.66
2019-03-03T11:21:18.727Z,916.64
2019-03-03T11:22:18.717Z,916.67
2019-03-03T11:23:18.708Z,916.63
2019-03-03T11:24:18.695Z,916.65
2019-03-03T11:25:18.683Z,916.61
2019-03-03T11:26:18.676Z,916.62
2019-03-03T11:27:18.663Z,916.61
2019-03-03T11:28:23.676Z,916.57
2019-03-03T11:29:18.643Z,916.59
2019-03-03T11:30:18.630Z,916.57
2019-03-03T11:31:18.618Z,916.55
2019-03-03T11:32:18.608Z,916.57
2019-03-03T11:33:18.597Z,916.58
2019-03-03T11:34:18.589Z,916.54
2019-03-03T11:35:18.579Z,916.59
2019-03-03T11:36:18.565Z,916.59
2019-03-03T11:37:18.554Z,916.61
2019-03-03T11:38:18.547Z,916.58
2019-03-03T11:39:18.532Z,916.59
2019-03-03T11:40:18.521Z,916.55
2019-03-03T11:41:18.511Z,916.55
2019-03-03T11:42:18.498Z,916.55
2019-03-03T11:43:18.490Z,916.56
2019-03-03T11:44:18.479Z,916.52
2019-03-03T11:45:18.463Z,916.54
2019-03-03T11:46:18.456Z,916.54
2019-03-03T11:47:18.444Z,916.55
2019-03-03T11:48:19.807Z,916.51
2019-03-03T11:49:18.423Z,916.54
2019-03-03T11:50:18.413Z,916.55
2019-03-03T11:51:18.401Z,916.57
2019-03-03T11:52:18.391Z,916.56
2019-03-03T11:53:18.481Z,916.57
2019-03-03T11:54:18.468Z,916.52
2019-03-03T11:55:18.358Z,916.57
2019-03-03T11:56:18.347Z,916.58
2019-03-03T11:57:18.338Z,916.55
2019-03-03T11:58:18.324Z,916.55
2019-03-03T11:59:18.314Z,916.56
2019-03-03T12:00:18.303Z,916.59
2019-03-03T12:01:18.292Z,916.56
2019-03-03T12:02:18.285Z,916.54
2019-03-03T12:03:18.343Z,916.53
2019-03-03T12:04:18.259Z,916.48
2019-03-03T12:05:18.247Z,916.48
2019-03-03T12:06:18.238Z,916.55
2019-03-03T12:07:18.226Z,916.52
2019-03-03T12:08:18.217Z,916.52
2019-03-03T12:09:18.208Z,916.54
2019-03-03T12:10:18.194Z,916.52
2019-03-03T12:11:18.184Z,916.51
2019-03-03T12:12:18.174Z,916.55
2019-03-03T12:13:18.160Z,916.49
2019-03-03T12:14:18.153Z,916.54
2019-03-03T12:15:18.141Z,916.50
2019-03-03T12:16:18.129Z,916.52
2019-03-03T12:17:18.118Z,916.53
2019-03-03T12:18:18.109Z,916.47
2019-03-03T12:19:18.100Z,916.49
2019-03-03T12:20:18.087Z,916.45
2019-03-03T12:21:18.075Z,916.53
2019-03-03T12:22:18.063Z,916.52
2019-03-03T12:23:18.051Z,916.53
2019-03-03T12:24:18.043Z,916.56
2019-03-03T12:25:18.030Z,916.58
2019-03-03T12:26:18.019Z,916.56
2019-03-03T12:27:18.010Z,916.55
2019-03-03T12:28:18.022Z,916.58
2019-03-03T12:29:17.989Z,916.57
2019-03-03T12:30:17.977Z,916.59
2019-03-03T12:31:17.976Z,916.61
2019-03-03T12:32:17.952Z,916.63
2019-03-03T12:33:17.945Z,916.65
2019-03-03T12:34:17.932Z,916.60
2019-03-03T12:35:17.921Z,916.58
2019-03-03T12:36:17.917Z,916.64
2019-03-03T12:37:19.309Z,916.57
2019-03-03T12:38:17.891Z,916.59
2019-03-03T12:39:17.881Z,916.56
2019-03-03T12:40:17.874Z,916.58
2019-03-03T12:41:17.859Z,916.59
2019-03-03T12:42:17.850Z,916.61
2019-03-03T12:43:17.837Z,916.56
2019-03-03T12:44:17.827Z,916.57
2019-03-03T12:45:17.814Z,916.53
2019-03-03T12:46:17.805Z,916.56
2019-03-03T12:47:17.795Z,916.60
2019-03-03T12:48:17.784Z,916.60
2019-03-03T12:49:17.771Z,916.57
2019-03-03T12:50:17.766Z,916.56
2019-03-03T12:51:17.750Z,916.57
2019-03-03T12:52:17.809Z,916.59
2019-03-03T12:53:17.730Z,916.61
2019-03-03T12:54:18.315Z,916.59
2019-03-03T12:55:17.708Z,916.59
2019-03-03T12:56:17.700Z,916.58
2019-03-03T12:57:17.687Z,916.60
2019-03-03T12:58:17.685Z,916.55
2019-03-03T12:59:17.667Z,916.58
2019-03-03T13:00:17.659Z,916.56
2019-03-03T13:01:17.646Z,916.54
2019-03-03T13:02:17.695Z,916.57
2019-03-03T13:03:17.627Z,916.55
2019-03-03T13:04:17.614Z,916.56
2019-03-03T13:05:17.606Z,916.53
2019-03-03T13:06:24.134Z,916.55
2019-03-03T13:07:18.694Z,916.61
2019-03-03T13:08:17.575Z,916.59
2019-03-03T13:09:17.665Z,916.60
2019-03-03T13:10:17.554Z,916.56
2019-03-03T13:11:17.548Z,916.58
2019-03-03T13:12:17.536Z,916.60
2019-03-03T13:13:17.521Z,916.60
2019-03-03T13:14:17.540Z,916.59
2019-03-03T13:15:17.502Z,916.63
2019-03-03T13:16:17.492Z,916.60
2019-03-03T13:17:17.483Z,916.63
2019-03-03T13:18:17.473Z,916.61
2019-03-03T13:19:17.464Z,916.64
2019-03-03T13:20:17.449Z,916.65
2019-03-03T13:21:17.441Z,916.66
2019-03-03T13:22:17.431Z,916.64
2019-03-03T13:23:17.423Z,916.65
2019-03-03T13:24:17.410Z,916.65